sensor_id;sensor_type;location;lat;lon;timestamp;pressure;altitude;pressure_sealevel;temperature;humidity
45275;BME280;31019;43.780;25.948;2023-10-31T00:02:27;101178.34;;;8.55;100.00
45275;BME280;31019;43.780;25.948;2023-10-31T00:04:55;101177.50;;;8.39;100.00
45275;BME280;31019;43.780;25.948;2023-10-31T00:07:22;101178.81;;;7.97;100.00
45275;BME280;31019;43.780;25.948;2023-10-31T00:09:49;101173.69;;;8.57;100.00
45275;BME280;31019;43.780;25.948;2023-10-31T00:12:15;101174.50;;;8.57;100.00
45275;BME280;31019;43.780;25.948;2023-10-31T00:14:42;101163.19;;;8.63;100.00
45275;BME280;31019;43.780;25.948;2023-10-31T00:17:13;101149.66;;;8.43;100.00
45275;BME280;31019;43.780;25.948;2023-10-31T00:19:41;101162.31;;;8.33;100.00
45275;BME280;31019;43.780;25.948;2023-10-31T00:22:10;101162.44;;;8.17;100.00
45275;BME280;31019;43.780;25.948;2023-10-31T00:24:40;101165.44;;;8.14;100.00
45275;BME280;31019;43.780;25.948;2023-10-31T00:27:09;101158.66;;;8.34;100.00
45275;BME280;31019;43.780;25.948;2023-10-31T00:29:42;101152.16;;;8.22;100.00
45275;BME280;31019;43.780;25.948;2023-10-31T00:32:21;101147.59;;;8.31;100.00
45275;BME280;31019;43.780;25.948;2023-10-31T00:34:49;101147.84;;;8.06;100.00
45275;BME280;31019;43.780;25.948;2023-10-31T00:37:16;101140.34;;;8.10;100.00
45275;BME280;31019;43.780;25.948;2023-10-31T00:39:42;101140.44;;;8.39;100.00
45275;BME280;31019;43.780;25.948;2023-10-31T00:42:11;101144.09;;;8.53;100.00
45275;BME280;31019;43.780;25.948;2023-10-31T00:44:38;101139.75;;;8.37;100.00
45275;BME280;31019;43.780;25.948;2023-10-31T00:47:12;101135.59;;;8.43;100.00
45275;BME280;31019;43.780;25.948;2023-10-31T00:49:41;101139.97;;;8.36;100.00
45275;BME280;31019;43.780;25.948;2023-10-31T00:52:08;101134.00;;;8.34;100.00
45275;BME280;31019;43.780;25.948;2023-10-31T00:54:36;101122.06;;;8.23;100.00
45275;BME280;31019;43.780;25.948;2023-10-31T00:57:09;101134.81;;;8.34;100.00
45275;BME280;31019;43.780;25.948;2023-10-31T00:59:36;101133.97;;;8.19;100.00
45275;BME280;31019;43.780;25.948;2023-10-31T01:02:05;101124.41;;;8.18;100.00
45275;BME280;31019;43.780;25.948;2023-10-31T01:04:32;101124.75;;;8.00;100.00
45275;BME280;31019;43.780;25.948;2023-10-31T01:07:00;101130.50;;;7.34;100.00
45275;BME280;31019;43.780;25.948;2023-10-31T01:09:54;101127.13;;;7.72;100.00
45275;BME280;31019;43.780;25.948;2023-10-31T01:12:21;101126.22;;;7.79;100.00
45275;BME280;31019;43.780;25.948;2023-10-31T01:14:48;101124.75;;;8.00;100.00
45275;BME280;31019;43.780;25.948;2023-10-31T01:17:31;101128.94;;;8.09;100.00
45275;BME280;31019;43.780;25.948;2023-10-31T01:19:58;101126.47;;;8.08;100.00
45275;BME280;31019;43.780;25.948;2023-10-31T01:22:36;101123.31;;;8.12;100.00
45275;BME280;31019;43.780;25.948;2023-10-31T01:25:04;101124.47;;;8.10;100.00
45275;BME280;31019;43.780;25.948;2023-10-31T01:27:31;101121.19;;;7.70;100.00
45275;BME280;31019;43.780;25.948;2023-10-31T01:29:58;101121.59;;;7.82;100.00
45275;BME280;31019;43.780;25.948;2023-10-31T01:32:26;101122.47;;;7.74;100.00
45275;BME280;31019;43.780;25.948;2023-10-31T01:34:53;101116.41;;;7.88;100.00
45275;BME280;31019;43.780;25.948;2023-10-31T01:37:20;101114.50;;;7.97;100.00
45275;BME280;31019;43.780;25.948;2023-10-31T01:39:48;101107.94;;;7.93;100.00
45275;BME280;31019;43.780;25.948;2023-10-31T01:42:16;101107.94;;;7.47;100.00
45275;BME280;31019;43.780;25.948;2023-10-31T01:44:43;101117.38;;;7.72;100.00
45275;BME280;31019;43.780;25.948;2023-10-31T01:47:10;101115.13;;;7.84;100.00
45275;BME280;31019;43.780;25.948;2023-10-31T01:50:00;101118.72;;;8.06;100.00
45275;BME280;31019;43.780;25.948;2023-10-31T01:52:27;101115.66;;;7.79;100.00
45275;BME280;31019;43.780;25.948;2023-10-31T01:55:00;101114.13;;;7.85;100.00
45275;BME280;31019;43.780;25.948;2023-10-31T01:57:28;101110.75;;;7.91;100.00
45275;BME280;31019;43.780;25.948;2023-10-31T02:00:03;101121.84;;;8.10;100.00
45275;BME280;31019;43.780;25.948;2023-10-31T02:02:33;101110.50;;;8.01;100.00
45275;BME280;31019;43.780;25.948;2023-10-31T02:05:01;101108.66;;;8.01;100.00
45275;BME280;31019;43.780;25.948;2023-10-31T02:07:27;101109.34;;;7.80;100.00
45275;BME280;31019;43.780;25.948;2023-10-31T02:09:54;101108.25;;;7.52;100.00
45275;BME280;31019;43.780;25.948;2023-10-31T02:12:32;101106.91;;;7.79;100.00
45275;BME280;31019;43.780;25.948;2023-10-31T02:15:09;101112.00;;;7.80;100.00
45275;BME280;31019;43.780;25.948;2023-10-31T02:17:37;101105.66;;;7.90;100.00
45275;BME280;31019;43.780;25.948;2023-10-31T02:20:04;101096.97;;;7.58;100.00
45275;BME280;31019;43.780;25.948;2023-10-31T02:22:33;101100.44;;;7.58;100.00
45275;BME280;31019;43.780;25.948;2023-10-31T02:25:00;101096.56;;;7.69;100.00
45275;BME280;31019;43.780;25.948;2023-10-31T02:27:27;101087.47;;;7.72;100.00
45275;BME280;31019;43.780;25.948;2023-10-31T02:29:53;101097.38;;;7.70;100.00
45275;BME280;31019;43.780;25.948;2023-10-31T02:32:20;101089.09;;;7.73;100.00
45275;BME280;31019;43.780;25.948;2023-10-31T02:34:48;101090.16;;;7.64;100.00
45275;BME280;31019;43.780;25.948;2023-10-31T02:37:28;101097.09;;;7.65;100.00
45275;BME280;31019;43.780;25.948;2023-10-31T02:39:58;101095.03;;;7.75;100.00
45275;BME280;31019;43.780;25.948;2023-10-31T02:42:25;101093.69;;;7.56;100.00
45275;BME280;31019;43.780;25.948;2023-10-31T02:44:52;101092.41;;;7.52;100.00
45275;BME280;31019;43.780;25.948;2023-10-31T02:47:18;101091.13;;;7.48;100.00
45275;BME280;31019;43.780;25.948;2023-10-31T02:49:45;101090.41;;;7.54;100.00
45275;BME280;31019;43.780;25.948;2023-10-31T02:52:12;101087.06;;;7.60;100.00
45275;BME280;31019;43.780;25.948;2023-10-31T02:54:39;101099.31;;;7.53;100.00
45275;BME280;31019;43.780;25.948;2023-10-31T02:57:08;101090.84;;;7.34;100.00
45275;BME280;31019;43.780;25.948;2023-10-31T02:59:38;101091.09;;;7.25;100.00
45275;BME280;31019;43.780;25.948;2023-10-31T03:02:05;101091.53;;;7.37;100.00
45275;BME280;31019;43.780;25.948;2023-10-31T03:04:31;101089.94;;;7.50;100.00
45275;BME280;31019;43.780;25.948;2023-10-31T03:06:58;101091.81;;;7.42;100.00
45275;BME280;31019;43.780;25.948;2023-10-31T03:09:25;101099.41;;;7.45;100.00
45275;BME280;31019;43.780;25.948;2023-10-31T03:11:53;101094.31;;;7.12;100.00
45275;BME280;31019;43.780;25.948;2023-10-31T03:14:21;101095.22;;;7.27;100.00
45275;BME280;31019;43.780;25.948;2023-10-31T03:16:50;101099.56;;;7.43;100.00
45275;BME280;31019;43.780;25.948;2023-10-31T03:19:16;101094.75;;;7.47;100.00
45275;BME280;31019;43.780;25.948;2023-10-31T03:21:45;101097.28;;;7.63;100.00
45275;BME280;31019;43.780;25.948;2023-10-31T03:24:16;101088.41;;;7.56;100.00
45275;BME280;31019;43.780;25.948;2023-10-31T03:26:43;101089.34;;;7.40;100.00
45275;BME280;31019;43.780;25.948;2023-10-31T03:29:10;101088.56;;;7.31;100.00
45275;BME280;31019;43.780;25.948;2023-10-31T03:31:38;101091.47;;;7.45;100.00
45275;BME280;31019;43.780;25.948;2023-10-31T03:34:05;101087.09;;;7.29;100.00
45275;BME280;31019;43.780;25.948;2023-10-31T03:37:01;101094.38;;;6.96;100.00
45275;BME280;31019;43.780;25.948;2023-10-31T03:39:47;101082.88;;;6.88;100.00
45275;BME280;31019;43.780;25.948;2023-10-31T03:42:14;101081.84;;;6.98;100.00
45275;BME280;31019;43.780;25.948;2023-10-31T03:44:41;101085.84;;;6.54;100.00
45275;BME280;31019;43.780;25.948;2023-10-31T03:47:10;101085.66;;;6.95;100.00
45275;BME280;31019;43.780;25.948;2023-10-31T03:49:40;101080.63;;;7.08;100.00
45275;BME280;31019;43.780;25.948;2023-10-31T03:52:15;101074.69;;;7.06;100.00
45275;BME280;31019;43.780;25.948;2023-10-31T03:54:42;101076.16;;;7.09;100.00
45275;BME280;31019;43.780;25.948;2023-10-31T03:57:16;101071.72;;;7.09;100.00
45275;BME280;31019;43.780;25.948;2023-10-31T03:59:43;101075.13;;;7.18;100.00
45275;BME280;31019;43.780;25.948;2023-10-31T04:02:12;101069.72;;;7.11;100.00
45275;BME280;31019;43.780;25.948;2023-10-31T04:04:38;101076.84;;;7.11;100.00
45275;BME280;31019;43.780;25.948;2023-10-31T04:07:05;101075.75;;;6.97;100.00
45275;BME280;31019;43.780;25.948;2023-10-31T04:09:54;101073.44;;;6.94;100.00
45275;BME280;31019;43.780;25.948;2023-10-31T04:12:22;101079.03;;;6.99;100.00
45275;BME280;31019;43.780;25.948;2023-10-31T04:14:50;101077.25;;;6.92;100.00
45275;BME280;31019;43.780;25.948;2023-10-31T04:17:19;101072.19;;;7.13;100.00
45275;BME280;31019;43.780;25.948;2023-10-31T04:19:45;101087.47;;;6.95;100.00
45275;BME280;31019;43.780;25.948;2023-10-31T04:22:19;101074.47;;;6.54;100.00
45275;BME280;31019;43.780;25.948;2023-10-31T04:24:46;101081.88;;;6.89;100.00
45275;BME280;31019;43.780;25.948;2023-10-31T04:27:13;101075.19;;;7.02;100.00
45275;BME280;31019;43.780;25.948;2023-10-31T04:29:47;101080.66;;;7.00;100.00
45275;BME280;31019;43.780;25.948;2023-10-31T04:32:14;101083.69;;;6.89;100.00
45275;BME280;31019;43.780;25.948;2023-10-31T04:34:43;101090.22;;;6.70;100.00
45275;BME280;31019;43.780;25.948;2023-10-31T04:37:09;101091.69;;;6.73;100.00
45275;BME280;31019;43.780;25.948;2023-10-31T04:39:38;101084.69;;;6.57;100.00
45275;BME280;31019;43.780;25.948;2023-10-31T04:42:05;101090.78;;;6.49;100.00
45275;BME280;31019;43.780;25.948;2023-10-31T04:44:32;101082.66;;;6.59;100.00
45275;BME280;31019;43.780;25.948;2023-10-31T04:47:23;101096.88;;;6.58;100.00
45275;BME280;31019;43.780;25.948;2023-10-31T04:50:00;101097.56;;;6.35;100.00
45275;BME280;31019;43.780;25.948;2023-10-31T04:52:33;101091.38;;;6.68;100.00
45275;BME280;31019;43.780;25.948;2023-10-31T04:55:00;101087.25;;;6.73;100.00
45275;BME280;31019;43.780;25.948;2023-10-31T04:57:27;101104.94;;;6.96;100.00
45275;BME280;31019;43.780;25.948;2023-10-31T04:59:56;101099.47;;;7.05;100.00
45275;BME280;31019;43.780;25.948;2023-10-31T05:02:24;101097.66;;;7.06;100.00
45275;BME280;31019;43.780;25.948;2023-10-31T05:04:51;101099.16;;;6.61;100.00
45275;BME280;31019;43.780;25.948;2023-10-31T05:07:27;101099.09;;;6.77;100.00
45275;BME280;31019;43.780;25.948;2023-10-31T05:09:54;101101.00;;;6.92;100.00
45275;BME280;31019;43.780;25.948;2023-10-31T05:12:24;101101.50;;;6.95;100.00
45275;BME280;31019;43.780;25.948;2023-10-31T05:15:08;101104.66;;;7.22;100.00
45275;BME280;31019;43.780;25.948;2023-10-31T05:17:41;101101.72;;;6.85;100.00
45275;BME280;31019;43.780;25.948;2023-10-31T05:20:09;101105.03;;;7.10;100.00
45275;BME280;31019;43.780;25.948;2023-10-31T05:22:50;101105.31;;;7.47;100.00
45275;BME280;31019;43.780;25.948;2023-10-31T05:25:17;101100.31;;;7.52;100.00
45275;BME280;31019;43.780;25.948;2023-10-31T05:27:44;101092.56;;;7.73;100.00
45275;BME280;31019;43.780;25.948;2023-10-31T05:30:13;101098.03;;;8.10;100.00
45275;BME280;31019;43.780;25.948;2023-10-31T05:32:41;101089.56;;;8.29;100.00
45275;BME280;31019;43.780;25.948;2023-10-31T05:35:09;101092.38;;;8.27;100.00
45275;BME280;31019;43.780;25.948;2023-10-31T05:37:36;101083.38;;;8.52;100.00
45275;BME280;31019;43.780;25.948;2023-10-31T05:40:06;101087.41;;;8.62;100.00
45275;BME280;31019;43.780;25.948;2023-10-31T05:42:36;101089.09;;;8.85;100.00
45275;BME280;31019;43.780;25.948;2023-10-31T05:45:05;101084.28;;;9.10;100.00
45275;BME280;31019;43.780;25.948;2023-10-31T05:47:32;101093.78;;;9.19;100.00
45275;BME280;31019;43.780;25.948;2023-10-31T05:49:59;101089.44;;;9.76;100.00
45275;BME280;31019;43.780;25.948;2023-10-31T05:52:28;101092.41;;;9.66;100.00
45275;BME280;31019;43.780;25.948;2023-10-31T05:54:55;101090.75;;;9.86;100.00
45275;BME280;31019;43.780;25.948;2023-10-31T05:57:23;101089.88;;;10.07;100.00
45275;BME280;31019;43.780;25.948;2023-10-31T05:59:50;101093.03;;;10.52;100.00
45275;BME280;31019;43.780;25.948;2023-10-31T06:02:37;101086.66;;;10.82;100.00
45275;BME280;31019;43.780;25.948;2023-10-31T06:05:05;101091.88;;;11.16;100.00
45275;BME280;31019;43.780;25.948;2023-10-31T06:07:32;101081.09;;;11.44;100.00
45275;BME280;31019;43.780;25.948;2023-10-31T06:09:59;101092.81;;;12.17;100.00
45275;BME280;31019;43.780;25.948;2023-10-31T06:12:27;101088.69;;;12.27;100.00
45275;BME280;31019;43.780;25.948;2023-10-31T06:14:54;101087.97;;;12.58;100.00
45275;BME280;31019;43.780;25.948;2023-10-31T06:17:22;101088.00;;;13.10;100.00
45275;BME280;31019;43.780;25.948;2023-10-31T06:19:50;101076.84;;;13.20;100.00
45275;BME280;31019;43.780;25.948;2023-10-31T06:22:17;101073.75;;;13.23;100.00
45275;BME280;31019;43.780;25.948;2023-10-31T06:24:44;101074.44;;;13.75;100.00
45275;BME280;31019;43.780;25.948;2023-10-31T06:27:11;101067.13;;;14.32;100.00
45275;BME280;31019;43.780;25.948;2023-10-31T06:29:39;101071.41;;;14.33;100.00
45275;BME280;31019;43.780;25.948;2023-10-31T06:32:06;101062.00;;;14.86;100.00
45275;BME280;31019;43.780;25.948;2023-10-31T06:34:41;101064.94;;;14.96;100.00
45275;BME280;31019;43.780;25.948;2023-10-31T06:37:08;101067.09;;;15.60;100.00
45275;BME280;31019;43.780;25.948;2023-10-31T06:39:35;101068.25;;;15.64;100.00
45275;BME280;31019;43.780;25.948;2023-10-31T06:42:04;101058.75;;;15.91;100.00
45275;BME280;31019;43.780;25.948;2023-10-31T06:44:31;101064.06;;;16.50;100.00
45275;BME280;31019;43.780;25.948;2023-10-31T06:46:59;101058.28;;;16.70;100.00
45275;BME280;31019;43.780;25.948;2023-10-31T06:49:52;101066.44;;;16.23;100.00
45275;BME280;31019;43.780;25.948;2023-10-31T06:52:27;101064.59;;;16.76;100.00
45275;BME280;31019;43.780;25.948;2023-10-31T06:55:04;101058.03;;;17.12;100.00
45275;BME280;31019;43.780;25.948;2023-10-31T06:57:39;101053.38;;;17.70;100.00
45275;BME280;31019;43.780;25.948;2023-10-31T07:00:07;101056.72;;;17.94;100.00
45275;BME280;31019;43.780;25.948;2023-10-31T07:02:36;101064.84;;;17.99;100.00
45275;BME280;31019;43.780;25.948;2023-10-31T07:05:04;101057.56;;;18.55;100.00
45275;BME280;31019;43.780;25.948;2023-10-31T07:07:31;101049.66;;;18.70;100.00
45275;BME280;31019;43.780;25.948;2023-10-31T07:09:58;101047.34;;;19.33;100.00
45275;BME280;31019;43.780;25.948;2023-10-31T07:12:25;101058.94;;;18.80;100.00
45275;BME280;31019;43.780;25.948;2023-10-31T07:14:51;101061.44;;;18.03;100.00
45275;BME280;31019;43.780;25.948;2023-10-31T07:17:21;101054.88;;;19.31;100.00
45275;BME280;31019;43.780;25.948;2023-10-31T07:19:49;101055.31;;;19.50;100.00
45275;BME280;31019;43.780;25.948;2023-10-31T07:22:19;101058.88;;;19.93;100.00
45275;BME280;31019;43.780;25.948;2023-10-31T07:24:47;101057.78;;;19.57;100.00
45275;BME280;31019;43.780;25.948;2023-10-31T07:27:14;101055.81;;;20.27;100.00
45275;BME280;31019;43.780;25.948;2023-10-31T07:29:44;101046.91;;;20.99;100.00
45275;BME280;31019;43.780;25.948;2023-10-31T07:32:12;101046.91;;;20.89;100.00
45275;BME280;31019;43.780;25.948;2023-10-31T07:34:41;101038.63;;;21.47;100.00
45275;BME280;31019;43.780;25.948;2023-10-31T07:37:27;101043.47;;;21.70;100.00
45275;BME280;31019;43.780;25.948;2023-10-31T07:40:04;101044.28;;;21.56;100.00
45275;BME280;31019;43.780;25.948;2023-10-31T07:42:31;101047.16;;;22.15;100.00
45275;BME280;31019;43.780;25.948;2023-10-31T07:44:58;101033.19;;;22.63;100.00
45275;BME280;31019;43.780;25.948;2023-10-31T07:47:26;101035.31;;;22.71;100.00
45275;BME280;31019;43.780;25.948;2023-10-31T07:49:52;101019.47;;;22.99;100.00
45275;BME280;31019;43.780;25.948;2023-10-31T07:52:20;101018.34;;;23.68;100.00
45275;BME280;31019;43.780;25.948;2023-10-31T07:54:48;101008.47;;;24.07;100.00
45275;BME280;31019;43.780;25.948;2023-10-31T07:57:21;101005.34;;;24.42;100.00
45275;BME280;31019;43.780;25.948;2023-10-31T07:59:48;100996.47;;;24.75;100.00
45275;BME280;31019;43.780;25.948;2023-10-31T08:02:15;101003.06;;;24.68;100.00
45275;BME280;31019;43.780;25.948;2023-10-31T08:04:43;101003.22;;;24.77;94.16
45275;BME280;31019;43.780;25.948;2023-10-31T08:07:10;100994.75;;;24.98;94.17
45275;BME280;31019;43.780;25.948;2023-10-31T08:12:30;100979.78;;;25.79;87.08
45275;BME280;31019;43.780;25.948;2023-10-31T08:14:58;100976.75;;;25.67;82.36
45275;BME280;31019;43.780;25.948;2023-10-31T08:17:25;100972.41;;;26.21;79.57
45275;BME280;31019;43.780;25.948;2023-10-31T08:19:52;100974.09;;;26.45;74.68
45275;BME280;31019;43.780;25.948;2023-10-31T08:22:19;100960.22;;;26.69;74.81
45275;BME280;31019;43.780;25.948;2023-10-31T08:24:46;100961.06;;;26.56;73.86
45275;BME280;31019;43.780;25.948;2023-10-31T08:27:13;100955.06;;;26.31;73.83
45275;BME280;31019;43.780;25.948;2023-10-31T08:29:42;100946.66;;;26.41;73.52
45275;BME280;31019;43.780;25.948;2023-10-31T08:32:08;100940.97;;;25.74;79.61
45275;BME280;31019;43.780;25.948;2023-10-31T08:34:35;100929.94;;;27.15;72.76
45275;BME280;31019;43.780;25.948;2023-10-31T08:37:05;100923.72;;;27.55;66.57
45275;BME280;31019;43.780;25.948;2023-10-31T08:39:32;100922.34;;;27.35;70.33
45275;BME280;31019;43.780;25.948;2023-10-31T08:41:59;100927.44;;;27.68;67.62
45275;BME280;31019;43.780;25.948;2023-10-31T08:44:26;100923.91;;;28.33;65.12
45275;BME280;31019;43.780;25.948;2023-10-31T08:46:55;100916.00;;;26.49;67.70
45275;BME280;31019;43.780;25.948;2023-10-31T08:49:21;100912.19;;;27.67;63.60
45275;BME280;31019;43.780;25.948;2023-10-31T08:51:58;100905.63;;;28.42;61.78
45275;BME280;31019;43.780;25.948;2023-10-31T08:54:27;100896.88;;;28.92;58.86
45275;BME280;31019;43.780;25.948;2023-10-31T08:56:54;100897.59;;;29.28;56.67
45275;BME280;31019;43.780;25.948;2023-10-31T08:59:27;100887.16;;;29.59;54.15
45275;BME280;31019;43.780;25.948;2023-10-31T09:02:10;100878.22;;;29.03;55.80
45275;BME280;31019;43.780;25.948;2023-10-31T09:04:41;100863.88;;;29.15;54.20
45275;BME280;31019;43.780;25.948;2023-10-31T09:07:31;100853.38;;;28.44;60.80
45275;BME280;31019;43.780;25.948;2023-10-31T09:10:05;100849.41;;;29.44;54.26
45275;BME280;31019;43.780;25.948;2023-10-31T09:12:54;100835.72;;;29.74;52.47
45275;BME280;31019;43.780;25.948;2023-10-31T09:15:20;100836.19;;;28.35;55.07
45275;BME280;31019;43.780;25.948;2023-10-31T09:17:49;100826.31;;;28.86;57.31
45275;BME280;31019;43.780;25.948;2023-10-31T09:20:36;100820.19;;;28.89;57.41
45275;BME280;31019;43.780;25.948;2023-10-31T09:23:26;100817.63;;;29.60;54.25
45275;BME280;31019;43.780;25.948;2023-10-31T09:26:07;100819.16;;;29.11;54.95
45275;BME280;31019;43.780;25.948;2023-10-31T09:28:43;100802.84;;;28.85;55.71
45275;BME280;31019;43.780;25.948;2023-10-31T09:31:18;100806.97;;;28.99;57.64
45275;BME280;31019;43.780;25.948;2023-10-31T09:33:49;100804.72;;;27.85;65.30
45275;BME280;31019;43.780;25.948;2023-10-31T09:36:16;100800.13;;;28.85;57.83
45275;BME280;31019;43.780;25.948;2023-10-31T09:38:43;100798.03;;;26.63;57.61
45275;BME280;31019;43.780;25.948;2023-10-31T09:41:13;100779.59;;;29.88;54.83
45275;BME280;31019;43.780;25.948;2023-10-31T09:43:40;100778.59;;;29.21;59.80
45275;BME280;31019;43.780;25.948;2023-10-31T09:46:08;100773.44;;;30.46;50.09
45275;BME280;31019;43.780;25.948;2023-10-31T09:48:37;100779.03;;;28.85;53.75
45275;BME280;31019;43.780;25.948;2023-10-31T09:51:11;100771.22;;;27.18;62.20
45275;BME280;31019;43.780;25.948;2023-10-31T09:53:39;100762.84;;;30.56;53.17
45275;BME280;31019;43.780;25.948;2023-10-31T09:56:10;100760.28;;;30.97;47.29
45275;BME280;31019;43.780;25.948;2023-10-31T09:58:37;100762.44;;;31.28;46.94
45275;BME280;31019;43.780;25.948;2023-10-31T10:01:13;100755.38;;;30.90;48.86
45275;BME280;31019;43.780;25.948;2023-10-31T10:03:42;100745.84;;;31.77;44.80
45275;BME280;31019;43.780;25.948;2023-10-31T10:06:11;100736.13;;;32.36;43.60
45275;BME280;31019;43.780;25.948;2023-10-31T10:08:52;100732.69;;;30.32;51.06
45275;BME280;31019;43.780;25.948;2023-10-31T10:11:27;100736.03;;;32.80;42.26
45275;BME280;31019;43.780;25.948;2023-10-31T10:14:06;100724.97;;;32.76;41.12
45275;BME280;31019;43.780;25.948;2023-10-31T10:16:36;100715.66;;;31.89;41.25
45275;BME280;31019;43.780;25.948;2023-10-31T10:19:19;100716.78;;;30.25;45.12
45275;BME280;31019;43.780;25.948;2023-10-31T10:21:49;100714.09;;;28.35;49.81
45275;BME280;31019;43.780;25.948;2023-10-31T10:24:42;100711.56;;;30.45;46.27
45275;BME280;31019;43.780;25.948;2023-10-31T10:27:19;100715.28;;;31.63;42.27
45275;BME280;31019;43.780;25.948;2023-10-31T10:29:56;100711.03;;;31.65;40.76
45275;BME280;31019;43.780;25.948;2023-10-31T10:32:35;100700.19;;;32.13;38.96
45275;BME280;31019;43.780;25.948;2023-10-31T10:35:07;100695.75;;;29.84;42.54
45275;BME280;31019;43.780;25.948;2023-10-31T10:37:37;100695.81;;;30.29;45.99
45275;BME280;31019;43.780;25.948;2023-10-31T10:40:15;100691.75;;;28.50;52.24
45275;BME280;31019;43.780;25.948;2023-10-31T10:42:45;100688.72;;;28.82;55.29
45275;BME280;31019;43.780;25.948;2023-10-31T10:45:13;100680.41;;;30.98;47.68
45275;BME280;31019;43.780;25.948;2023-10-31T10:47:45;100675.16;;;30.69;47.65
45275;BME280;31019;43.780;25.948;2023-10-31T10:50:18;100674.19;;;31.38;46.86
45275;BME280;31019;43.780;25.948;2023-10-31T10:53:13;100663.63;;;30.39;46.56
45275;BME280;31019;43.780;25.948;2023-10-31T10:55:45;100667.81;;;29.36;48.53
45275;BME280;31019;43.780;25.948;2023-10-31T10:58:33;100658.88;;;28.68;49.05
45275;BME280;31019;43.780;25.948;2023-10-31T11:01:04;100647.44;;;29.67;47.30
45275;BME280;31019;43.780;25.948;2023-10-31T11:03:36;100651.91;;;27.76;50.58
45275;BME280;31019;43.780;25.948;2023-10-31T11:06:03;100644.06;;;31.14;44.77
45275;BME280;31019;43.780;25.948;2023-10-31T11:08:35;100642.03;;;30.62;47.26
45275;BME280;31019;43.780;25.948;2023-10-31T11:11:03;100646.72;;;28.86;47.89
45275;BME280;31019;43.780;25.948;2023-10-31T11:13:31;100632.63;;;27.03;58.03
45275;BME280;31019;43.780;25.948;2023-10-31T11:16:09;100631.84;;;29.26;51.02
45275;BME280;31019;43.780;25.948;2023-10-31T11:18:39;100614.38;;;31.03;42.31
45275;BME280;31019;43.780;25.948;2023-10-31T11:21:06;100609.59;;;31.41;40.70
45275;BME280;31019;43.780;25.948;2023-10-31T11:23:40;100606.38;;;30.74;43.84
45275;BME280;31019;43.780;25.948;2023-10-31T11:26:07;100603.50;;;29.84;44.22
45275;BME280;31019;43.780;25.948;2023-10-31T11:28:36;100600.09;;;29.33;47.23
45275;BME280;31019;43.780;25.948;2023-10-31T11:31:09;100590.53;;;28.38;46.87
45275;BME280;31019;43.780;25.948;2023-10-31T11:33:38;100584.41;;;29.00;46.46
45275;BME280;31019;43.780;25.948;2023-10-31T11:36:08;100590.31;;;29.11;47.03
45275;BME280;31019;43.780;25.948;2023-10-31T11:38:39;100584.25;;;29.06;45.69
45275;BME280;31019;43.780;25.948;2023-10-31T11:41:12;100588.97;;;30.42;42.31
45275;BME280;31019;43.780;25.948;2023-10-31T11:43:52;100584.25;;;29.06;44.37
45275;BME280;31019;43.780;25.948;2023-10-31T11:46:19;100583.50;;;28.37;48.49
45275;BME280;31019;43.780;25.948;2023-10-31T11:48:56;100579.06;;;29.46;43.30
45275;BME280;31019;43.780;25.948;2023-10-31T11:51:23;100574.47;;;29.71;41.93
45275;BME280;31019;43.780;25.948;2023-10-31T11:54:01;100566.69;;;30.19;40.20
45275;BME280;31019;43.780;25.948;2023-10-31T11:56:28;100562.66;;;30.65;40.55
45275;BME280;31019;43.780;25.948;2023-10-31T11:58:56;100560.09;;;29.62;42.84
45275;BME280;31019;43.780;25.948;2023-10-31T12:01:23;100558.53;;;30.96;37.85
45275;BME280;31019;43.780;25.948;2023-10-31T12:03:50;100547.38;;;31.17;36.67
45275;BME280;31019;43.780;25.948;2023-10-31T12:06:25;100546.75;;;31.96;36.36
45275;BME280;31019;43.780;25.948;2023-10-31T12:08:52;100549.53;;;29.73;40.10
45275;BME280;31019;43.780;25.948;2023-10-31T12:11:22;100536.53;;;32.98;35.99
45275;BME280;31019;43.780;25.948;2023-10-31T12:13:54;100545.97;;;32.62;35.68
45275;BME280;31019;43.780;25.948;2023-10-31T12:16:24;100529.84;;;34.34;33.18
45275;BME280;31019;43.780;25.948;2023-10-31T12:19:00;100539.00;;;32.01;34.57
45275;BME280;31019;43.780;25.948;2023-10-31T12:21:39;100532.31;;;29.72;38.55
45275;BME280;31019;43.780;25.948;2023-10-31T12:24:09;100521.34;;;30.58;36.44
45275;BME280;31019;43.780;25.948;2023-10-31T12:26:38;100520.81;;;31.65;37.15
45275;BME280;31019;43.780;25.948;2023-10-31T12:29:17;100515.97;;;31.14;35.75
45275;BME280;31019;43.780;25.948;2023-10-31T12:31:46;100517.00;;;31.10;35.83
45275;BME280;31019;43.780;25.948;2023-10-31T12:34:14;100512.34;;;32.17;34.26
45275;BME280;31019;43.780;25.948;2023-10-31T12:36:41;100509.34;;;31.59;35.36
45275;BME280;31019;43.780;25.948;2023-10-31T12:39:11;100513.38;;;31.49;34.51
45275;BME280;31019;43.780;25.948;2023-10-31T12:41:40;100512.19;;;30.78;36.12
45275;BME280;31019;43.780;25.948;2023-10-31T12:44:27;100507.19;;;30.56;36.79
45275;BME280;31019;43.780;25.948;2023-10-31T12:46:54;100505.28;;;29.04;40.09
45275;BME280;31019;43.780;25.948;2023-10-31T12:49:21;100496.94;;;28.80;41.38
45275;BME280;31019;43.780;25.948;2023-10-31T12:51:57;100506.88;;;28.34;42.64
45275;BME280;31019;43.780;25.948;2023-10-31T12:54:29;100496.22;;;30.80;38.43
45275;BME280;31019;43.780;25.948;2023-10-31T12:57:00;100491.22;;;29.60;40.73
45275;BME280;31019;43.780;25.948;2023-10-31T12:59:32;100494.50;;;31.32;35.64